Terminal Aerodrome Forecast
Issued by NWS Des Moines, IA

Home | Current Version | Previous Version | Text Only | Print | Product List | Glossary On
Versions: 1 2 3 4 5 6 7 8 9 10 11 12 13 14 15 16 17 18 19 20 21 22 23 24
000
FTUS43 KDMX 311347 AAA
TAFALO
TAF AMD
KALO 311347Z 3114/0112 17009KT P6SM SCT050 BKN120
     FM312000 20010KT 6SM SHRA BR VCTS SCT028 BKN040CB
     FM010200 25005KT P6SM BKN050
     FM010600 VRB03KT 5SM BR FEW250=

USA.gov is the U.S. government's official web portal to all federal, state and local government web resources and services.